• Join FlightAware (Why Join?)
  • Login
  • US Flag 
02:52AM EST


 

Airport Tracker/Info


-or-


 

Live Flight TrackerFlight Track Log ✈ PDT4314 ✈ 05-Aug-2014 ✈ KBGM - KPHL

Flight Track Log - Related Links

Times and Time Zones

All times are in EDT time to prevent confusion due to time zone crossing. See the PDT4314 flight status page for this flight to view local times or setup timezone preferences in your user account.

Time Position Orientation Groundspeed Altitude Reporting Facility
EDT Latitude Longitude Course Direction KTS MPH feet Rate Location/Type
06:56PM 41.9713 -75.9021 180° South  Level Estimated
06:57PM 41.9106 -75.9107 186° South  Level FlightAware Approximate
06:58PM 41.8500 -75.9193 186° South  Level FlightAware Approximate
06:59PM 41.7893 -75.9278 186° South  Level FlightAware Approximate
07:00PM 41.7305 -75.9061 154° Southeast  Level Estimated
07:01PM 41.6716 -75.8844 160° South  Level Estimated
07:02PM 41.6128 -75.8628 159° South  Level Estimated
07:03PM 41.5565 -75.8314 157° South  Level FlightAware Approximate
07:04PM 41.4976 -75.8102 153° Southeast  Level Estimated
07:05PM 41.4387 -75.7891 161° South  Level Estimated
07:06PM 41.3833 -75.7550 155° Southeast  Level FlightAware Approximate
07:07PM 41.3279 -75.7209 155° Southeast  Level FlightAware Approximate
07:08PM 41.2688 -75.7010 162° South  Level Estimated
07:09PM 41.2117 -75.6724 159° South  Level FlightAware Approximate
07:10PM 41.1546 -75.6438 159° South  Level FlightAware Approximate
07:11PM 41.0975 -75.6153 159° South  Level FlightAware Approximate
07:12PM 41.0404 -75.5868 159° South  Level FlightAware Approximate
07:13PM 40.9809 -75.5689 159° South  Level Estimated
07:14PM 40.9215 -75.5510 163° South  Level Estimated
07:15PM 40.8643 -75.5227 160° South  Level FlightAware Approximate
07:16PM 40.8072 -75.4945 160° South  Level FlightAware Approximate
07:17PM 40.7500 -75.4664 160° South  Level FlightAware Approximate
07:17PM 41.1342 -75.6414 190° South 235 270 5,900  Level New York Center
07:18PM 40.6902 -75.4508 190° South  Level Estimated
07:18PM 41.0717 -75.6397 179° South 237 273 5,900  Level New York Center
07:19PM 40.6303 -75.4663 191° South  Level FlightAware Approximate
07:19PM 41.0011 -75.6347 177° South 237 273 5,900  Level New York Center
07:20PM 40.5704 -75.4818 191° South  Level FlightAware Approximate
07:21PM 40.5115 -75.4613 187° South  Level Estimated
07:21PM 40.9078 -75.6225 174° South 237 273 6,000  Level New York Center
07:21PM 40.8703 -75.6200 177° South 237 273 6,000  Level New York Center
07:22PM 40.4544 -75.4896 201° Southwest  Level FlightAware Approximate
07:23PM 40.3964 -75.4647 190° South  Level Estimated
07:23PM 40.7750 -75.6075 174° South 237 273 6,000  Level New York Center
07:23PM 40.7375 -75.6078 180° South 237 273 5,900  Descending New York Center
07:24PM 40.6708 -75.6111 182° South 233 268 6,000  Climbing New York Center
07:26PM 40.5667 -75.5833 169° South 235 270 5,900 -420 Descending Philadelphia TRACON
07:27PM 40.5167 -75.5500 153° Southeast 265 305 5,000 -480 Descending Philadelphia TRACON
07:28PM 40.4667 -75.5000 143° Southeast 246 283 5,000  Level Philadelphia TRACON
07:29PM 40.4167 -75.4333 135° Southeast 242 278 5,000  Level Philadelphia TRACON
07:30PM 40.3667 -75.3833 143° Southeast 239 275 5,000 -480 Level Philadelphia TRACON
07:31PM 40.3000 -75.3333 150° Southeast 257 296 4,000 -540 Descending Philadelphia TRACON
07:32PM 40.2500 -75.3000 153° Southeast 244 281 4,000  Level Philadelphia TRACON
07:33PM 40.1833 -75.2667 159° South 234 269 4,000  Level Philadelphia TRACON
07:34PM 40.1167 -75.2333 159° South 233 268 4,000  Level Philadelphia TRACON
07:35PM 40.0667 -75.2167 166° South 231 266 4,000  Level Philadelphia TRACON
07:36PM 40.0000 -75.1833 159° South 234 269 4,000  Level Philadelphia TRACON
07:37PM 39.9333 -75.1667 169° South 238 274 4,000 -120 Level Philadelphia TRACON
07:38PM 39.8667 -75.1333 159° South 236 272 3,800 -960 Descending Philadelphia TRACON
07:39PM 39.8167 -75.1333 180° South 237 273 2,100 -1,260 Descending Philadelphia TRACON
07:40PM 39.8167 -75.2000 270° West 169 194 1,500 -840 Descending Philadelphia TRACON
07:41PM 39.8500 -75.2167 339° North 129 148 600 -900 Descending Philadelphia TRACON